sensor_id;sensor_type;location;lat;lon;timestamp;pressure;altitude;pressure_sealevel;temperature;humidity
5413;BME280;2729;50.056;8.678;2023-01-08T00:02:24;99589.44;;;11.20;100.00
5413;BME280;2729;50.056;8.678;2023-01-08T00:04:50;99595.38;;;11.23;100.00
5413;BME280;2729;50.056;8.678;2023-01-08T00:07:16;99594.59;;;11.21;100.00
5413;BME280;2729;50.056;8.678;2023-01-08T00:09:42;99581.97;;;11.33;100.00
5413;BME280;2729;50.056;8.678;2023-01-08T00:12:08;99577.72;;;11.30;100.00
5413;BME280;2729;50.056;8.678;2023-01-08T00:14:34;99575.41;;;11.22;100.00
5413;BME280;2729;50.056;8.678;2023-01-08T00:17:00;99567.88;;;11.37;100.00
5413;BME280;2729;50.056;8.678;2023-01-08T00:19:27;99559.97;;;11.16;100.00
5413;BME280;2729;50.056;8.678;2023-01-08T00:21:54;99561.56;;;11.20;100.00
5413;BME280;2729;50.056;8.678;2023-01-08T00:24:20;99547.88;;;11.14;100.00
5413;BME280;2729;50.056;8.678;2023-01-08T00:26:46;99542.53;;;11.17;100.00
5413;BME280;2729;50.056;8.678;2023-01-08T00:29:12;99547.63;;;11.20;100.00
5413;BME280;2729;50.056;8.678;2023-01-08T00:31:38;99537.75;;;11.28;100.00
5413;BME280;2729;50.056;8.678;2023-01-08T00:34:04;99527.09;;;11.33;100.00
5413;BME280;2729;50.056;8.678;2023-01-08T00:36:29;99526.81;;;11.18;100.00
5413;BME280;2729;50.056;8.678;2023-01-08T00:38:57;99523.53;;;11.35;100.00
5413;BME280;2729;50.056;8.678;2023-01-08T00:41:23;99519.16;;;11.36;100.00
5413;BME280;2729;50.056;8.678;2023-01-08T00:43:49;99517.56;;;11.32;100.00
5413;BME280;2729;50.056;8.678;2023-01-08T00:46:15;99523.47;;;11.37;100.00
5413;BME280;2729;50.056;8.678;2023-01-08T00:48:41;99522.91;;;11.28;100.00
5413;BME280;2729;50.056;8.678;2023-01-08T00:51:08;99522.00;;;11.30;100.00
5413;BME280;2729;50.056;8.678;2023-01-08T00:53:34;99518.47;;;11.31;100.00
5413;BME280;2729;50.056;8.678;2023-01-08T00:56:02;99514.28;;;11.26;100.00
5413;BME280;2729;50.056;8.678;2023-01-08T00:58:29;99507.97;;;11.10;100.00
5413;BME280;2729;50.056;8.678;2023-01-08T01:00:55;99507.50;;;11.22;100.00
5413;BME280;2729;50.056;8.678;2023-01-08T01:03:21;99506.69;;;11.20;100.00
5413;BME280;2729;50.056;8.678;2023-01-08T01:05:47;99511.63;;;11.28;100.00
5413;BME280;2729;50.056;8.678;2023-01-08T01:08:13;99511.13;;;11.18;100.00
5413;BME280;2729;50.056;8.678;2023-01-08T01:10:39;99511.63;;;11.28;100.00
5413;BME280;2729;50.056;8.678;2023-01-08T01:13:04;99512.47;;;11.28;100.00
5413;BME280;2729;50.056;8.678;2023-01-08T01:15:30;99507.91;;;11.34;100.00
5413;BME280;2729;50.056;8.678;2023-01-08T01:17:56;99505.84;;;11.42;100.00
5413;BME280;2729;50.056;8.678;2023-01-08T01:20:22;99510.22;;;11.41;100.00
5413;BME280;2729;50.056;8.678;2023-01-08T01:22:49;99512.44;;;11.50;100.00
5413;BME280;2729;50.056;8.678;2023-01-08T01:25:15;99507.41;;;11.46;100.00
5413;BME280;2729;50.056;8.678;2023-01-08T01:27:41;99506.56;;;11.45;100.00
5413;BME280;2729;50.056;8.678;2023-01-08T01:30:08;99508.91;;;11.51;100.00
5413;BME280;2729;50.056;8.678;2023-01-08T01:32:34;99519.91;;;11.59;100.00
5413;BME280;2729;50.056;8.678;2023-01-08T01:35:00;99518.53;;;11.51;100.00
5413;BME280;2729;50.056;8.678;2023-01-08T01:37:26;99519.19;;;11.56;100.00
5413;BME280;2729;50.056;8.678;2023-01-08T01:39:52;99514.38;;;11.67;100.00
5413;BME280;2729;50.056;8.678;2023-01-08T01:42:20;99523.38;;;11.60;100.00
5413;BME280;2729;50.056;8.678;2023-01-08T01:45:19;99523.56;;;11.55;100.00
5413;BME280;2729;50.056;8.678;2023-01-08T01:47:53;99515.47;;;11.62;100.00
5413;BME280;2729;50.056;8.678;2023-01-08T01:50:25;99520.38;;;11.69;100.00
5413;BME280;2729;50.056;8.678;2023-01-08T01:53:16;99513.31;;;11.71;100.00
5413;BME280;2729;50.056;8.678;2023-01-08T01:55:44;99505.53;;;11.70;100.00
5413;BME280;2729;50.056;8.678;2023-01-08T01:58:21;99502.47;;;11.60;100.00
5413;BME280;2729;50.056;8.678;2023-01-08T02:00:49;99508.03;;;11.73;100.00
5413;BME280;2729;50.056;8.678;2023-01-08T02:03:23;99502.56;;;11.79;100.00
5413;BME280;2729;50.056;8.678;2023-01-08T02:08:59;99502.22;;;11.66;100.00
5413;BME280;2729;50.056;8.678;2023-01-08T02:14:15;99504.75;;;11.89;100.00
5413;BME280;2729;50.056;8.678;2023-01-08T02:17:05;99510.75;;;11.91;100.00
5413;BME280;2729;50.056;8.678;2023-01-08T02:19:52;99511.28;;;12.00;100.00
5413;BME280;2729;50.056;8.678;2023-01-08T02:22:32;99504.75;;;11.89;100.00
5413;BME280;2729;50.056;8.678;2023-01-08T02:27:42;99498.19;;;12.20;100.00
5413;BME280;2729;50.056;8.678;2023-01-08T02:30:09;99497.28;;;12.01;100.00
5413;BME280;2729;50.056;8.678;2023-01-08T02:32:37;99494.34;;;11.88;100.00
5413;BME280;2729;50.056;8.678;2023-01-08T02:35:04;99494.81;;;11.77;100.00
5413;BME280;2729;50.056;8.678;2023-01-08T02:37:30;99493.72;;;11.61;100.00
5413;BME280;2729;50.056;8.678;2023-01-08T02:43:02;99490.81;;;11.47;100.00
5413;BME280;2729;50.056;8.678;2023-01-08T02:45:43;99495.44;;;11.40;100.00
5413;BME280;2729;50.056;8.678;2023-01-08T02:48:19;99494.84;;;11.12;100.00
5413;BME280;2729;50.056;8.678;2023-01-08T02:51:12;99494.31;;;11.25;100.00
5413;BME280;2729;50.056;8.678;2023-01-08T02:53:43;99484.16;;;11.18;100.00
5413;BME280;2729;50.056;8.678;2023-01-08T02:56:13;99485.81;;;11.20;100.00
5413;BME280;2729;50.056;8.678;2023-01-08T02:58:40;99482.72;;;11.11;100.00
5413;BME280;2729;50.056;8.678;2023-01-08T03:01:08;99475.47;;;11.17;100.00
5413;BME280;2729;50.056;8.678;2023-01-08T03:03:37;99467.66;;;11.17;100.00
5413;BME280;2729;50.056;8.678;2023-01-08T03:06:07;99463.22;;;11.19;100.00
5413;BME280;2729;50.056;8.678;2023-01-08T03:08:37;99461.19;;;11.26;100.00
5413;BME280;2729;50.056;8.678;2023-01-08T03:11:07;99463.53;;;11.12;100.00
5413;BME280;2729;50.056;8.678;2023-01-08T03:13:47;99451.88;;;10.99;100.00
5413;BME280;2729;50.056;8.678;2023-01-08T03:16:19;99460.06;;;10.89;100.00
5413;BME280;2729;50.056;8.678;2023-01-08T03:18:51;99455.25;;;11.01;100.00
5413;BME280;2729;50.056;8.678;2023-01-08T03:21:17;99447.31;;;11.04;100.00
5413;BME280;2729;50.056;8.678;2023-01-08T03:23:45;99444.28;;;11.35;100.00
5413;BME280;2729;50.056;8.678;2023-01-08T03:26:15;99442.84;;;11.27;100.00
5413;BME280;2729;50.056;8.678;2023-01-08T03:28:45;99438.84;;;11.19;100.00
5413;BME280;2729;50.056;8.678;2023-01-08T03:31:14;99433.03;;;11.12;100.00
5413;BME280;2729;50.056;8.678;2023-01-08T03:33:42;99442.88;;;11.06;100.00
5413;BME280;2729;50.056;8.678;2023-01-08T03:36:12;99428.56;;;10.94;100.00
5413;BME280;2729;50.056;8.678;2023-01-08T03:38:47;99420.91;;;10.89;100.00
5413;BME280;2729;50.056;8.678;2023-01-08T03:41:18;99425.53;;;10.83;100.00
5413;BME280;2729;50.056;8.678;2023-01-08T03:43:45;99424.06;;;10.76;100.00
5413;BME280;2729;50.056;8.678;2023-01-08T03:46:28;99419.63;;;11.00;100.00
5413;BME280;2729;50.056;8.678;2023-01-08T03:48:55;99413.19;;;10.86;100.00
5413;BME280;2729;50.056;8.678;2023-01-08T03:51:22;99411.84;;;10.76;100.00
5413;BME280;2729;50.056;8.678;2023-01-08T03:53:51;99409.00;;;10.82;100.00
5413;BME280;2729;50.056;8.678;2023-01-08T03:56:18;99416.47;;;10.91;100.00
5413;BME280;2729;50.056;8.678;2023-01-08T03:58:44;99394.31;;;10.80;100.00
5413;BME280;2729;50.056;8.678;2023-01-08T04:01:10;99409.63;;;10.89;100.00
5413;BME280;2729;50.056;8.678;2023-01-08T04:03:36;99398.78;;;10.98;100.00
5413;BME280;2729;50.056;8.678;2023-01-08T04:06:02;99399.16;;;10.89;100.00
5413;BME280;2729;50.056;8.678;2023-01-08T04:08:28;99391.09;;;10.73;100.00
5413;BME280;2729;50.056;8.678;2023-01-08T04:10:54;99379.69;;;10.76;100.00
5413;BME280;2729;50.056;8.678;2023-01-08T04:13:20;99382.91;;;10.82;100.00
5413;BME280;2729;50.056;8.678;2023-01-08T04:15:50;99383.44;;;10.90;100.00
5413;BME280;2729;50.056;8.678;2023-01-08T04:18:16;99384.78;;;10.79;100.00
5413;BME280;2729;50.056;8.678;2023-01-08T04:20:48;99373.69;;;10.74;100.00
5413;BME280;2729;50.056;8.678;2023-01-08T04:23:14;99371.06;;;10.74;100.00
5413;BME280;2729;50.056;8.678;2023-01-08T04:25:41;99364.03;;;10.76;100.00
5413;BME280;2729;50.056;8.678;2023-01-08T04:28:07;99363.78;;;10.82;100.00
5413;BME280;2729;50.056;8.678;2023-01-08T04:30:33;99376.47;;;10.91;100.00
5413;BME280;2729;50.056;8.678;2023-01-08T04:32:59;99366.41;;;10.82;100.00
5413;BME280;2729;50.056;8.678;2023-01-08T04:35:25;99361.53;;;10.73;100.00
5413;BME280;2729;50.056;8.678;2023-01-08T04:37:51;99362.22;;;10.78;100.00
5413;BME280;2729;50.056;8.678;2023-01-08T04:40:17;99369.66;;;10.87;100.00
5413;BME280;2729;50.056;8.678;2023-01-08T04:42:42;99366.03;;;10.69;100.00
5413;BME280;2729;50.056;8.678;2023-01-08T04:45:09;99360.09;;;10.66;100.00
5413;BME280;2729;50.056;8.678;2023-01-08T04:47:35;99356.25;;;10.74;100.00
5413;BME280;2729;50.056;8.678;2023-01-08T04:50:00;99362.28;;;10.76;100.00
5413;BME280;2729;50.056;8.678;2023-01-08T04:52:27;99361.25;;;10.80;100.00
5413;BME280;2729;50.056;8.678;2023-01-08T04:54:54;99362.63;;;10.89;100.00
5413;BME280;2729;50.056;8.678;2023-01-08T04:57:20;99356.56;;;10.88;100.00
5413;BME280;2729;50.056;8.678;2023-01-08T04:59:46;99353.88;;;10.90;100.00
5413;BME280;2729;50.056;8.678;2023-01-08T05:02:12;99357.16;;;10.95;100.00
5413;BME280;2729;50.056;8.678;2023-01-08T05:04:38;99351.16;;;10.93;100.00
5413;BME280;2729;50.056;8.678;2023-01-08T05:07:04;99339.25;;;10.86;100.00
5413;BME280;2729;50.056;8.678;2023-01-08T05:09:30;99347.88;;;10.88;100.00
5413;BME280;2729;50.056;8.678;2023-01-08T05:11:56;99350.47;;;10.88;100.00
5413;BME280;2729;50.056;8.678;2023-01-08T05:14:22;99351.81;;;10.98;100.00
5413;BME280;2729;50.056;8.678;2023-01-08T05:16:48;99344.34;;;10.89;100.00
5413;BME280;2729;50.056;8.678;2023-01-08T05:19:14;99347.56;;;10.95;100.00
5413;BME280;2729;50.056;8.678;2023-01-08T05:21:40;99348.53;;;10.93;100.00
5413;BME280;2729;50.056;8.678;2023-01-08T05:24:06;99345.59;;;11.01;100.00
5413;BME280;2729;50.056;8.678;2023-01-08T05:26:34;99345.47;;;11.04;100.00
5413;BME280;2729;50.056;8.678;2023-01-08T05:29:00;99349.75;;;10.84;100.00
5413;BME280;2729;50.056;8.678;2023-01-08T05:31:26;99346.56;;;10.98;100.00
5413;BME280;2729;50.056;8.678;2023-01-08T05:33:52;99345.91;;;10.93;100.00
5413;BME280;2729;50.056;8.678;2023-01-08T05:36:18;99351.81;;;10.98;100.00
5413;BME280;2729;50.056;8.678;2023-01-08T05:38:44;99348.84;;;10.85;100.00
5413;BME280;2729;50.056;8.678;2023-01-08T05:41:10;99351.75;;;11.20;100.00
5413;BME280;2729;50.056;8.678;2023-01-08T05:43:36;99355.06;;;11.03;100.00
5413;BME280;2729;50.056;8.678;2023-01-08T05:46:03;99357.41;;;10.67;100.00
5413;BME280;2729;50.056;8.678;2023-01-08T05:48:31;99353.03;;;10.89;100.00
5413;BME280;2729;50.056;8.678;2023-01-08T05:50:58;99353.75;;;10.93;100.00
5413;BME280;2729;50.056;8.678;2023-01-08T05:53:24;99347.81;;;10.89;100.00
5413;BME280;2729;50.056;8.678;2023-01-08T05:55:50;99346.03;;;10.90;100.00
5413;BME280;2729;50.056;8.678;2023-01-08T05:58:16;99343.13;;;10.98;100.00
5413;BME280;2729;50.056;8.678;2023-01-08T06:00:44;99346.19;;;10.87;100.00
5413;BME280;2729;50.056;8.678;2023-01-08T06:03:10;99348.56;;;10.71;100.00
5413;BME280;2729;50.056;8.678;2023-01-08T06:05:36;99344.84;;;10.77;100.00
5413;BME280;2729;50.056;8.678;2023-01-08T06:08:02;99347.03;;;10.87;100.00
5413;BME280;2729;50.056;8.678;2023-01-08T06:10:28;99356.16;;;10.77;100.00
5413;BME280;2729;50.056;8.678;2023-01-08T06:12:54;99347.22;;;10.83;100.00
5413;BME280;2729;50.056;8.678;2023-01-08T06:15:20;99356.81;;;10.82;100.00
5413;BME280;2729;50.056;8.678;2023-01-08T06:17:46;99352.81;;;10.74;100.00
5413;BME280;2729;50.056;8.678;2023-01-08T06:20:12;99352.94;;;10.71;100.00
5413;BME280;2729;50.056;8.678;2023-01-08T06:22:38;99357.66;;;10.83;100.00
5413;BME280;2729;50.056;8.678;2023-01-08T06:25:04;99359.72;;;10.75;100.00
5413;BME280;2729;50.056;8.678;2023-01-08T06:27:30;99356.19;;;10.76;100.00
5413;BME280;2729;50.056;8.678;2023-01-08T06:29:56;99352.81;;;10.74;100.00
5413;BME280;2729;50.056;8.678;2023-01-08T06:32:22;99340.78;;;10.70;100.00
5413;BME280;2729;50.056;8.678;2023-01-08T06:34:48;99342.13;;;10.58;100.00
5413;BME280;2729;50.056;8.678;2023-01-08T06:37:14;99343.38;;;10.91;100.00
5413;BME280;2729;50.056;8.678;2023-01-08T06:39:40;99343.31;;;10.93;100.00
5413;BME280;2729;50.056;8.678;2023-01-08T06:42:06;99353.47;;;10.79;100.00
5413;BME280;2729;50.056;8.678;2023-01-08T06:44:32;99352.31;;;10.64;100.00
5413;BME280;2729;50.056;8.678;2023-01-08T06:46:58;99341.69;;;10.69;100.00
5413;BME280;2729;50.056;8.678;2023-01-08T06:49:24;99350.97;;;10.76;100.00
5413;BME280;2729;50.056;8.678;2023-01-08T06:51:50;99353.09;;;10.88;100.00
5413;BME280;2729;50.056;8.678;2023-01-08T06:54:16;99350.97;;;10.76;100.00
5413;BME280;2729;50.056;8.678;2023-01-08T06:56:41;99354.34;;;10.57;100.00
5413;BME280;2729;50.056;8.678;2023-01-08T06:59:07;99354.63;;;10.72;100.00
5413;BME280;2729;50.056;8.678;2023-01-08T07:01:36;99356.78;;;11.24;100.00
5413;BME280;2729;50.056;8.678;2023-01-08T07:04:02;99356.44;;;10.91;100.00
5413;BME280;2729;50.056;8.678;2023-01-08T07:06:28;99354.97;;;10.84;100.00
5413;BME280;2729;50.056;8.678;2023-01-08T07:08:54;99354.94;;;10.64;100.00
5413;BME280;2729;50.056;8.678;2023-01-08T07:11:20;99354.78;;;10.89;100.00
5413;BME280;2729;50.056;8.678;2023-01-08T07:13:45;99354.41;;;10.98;100.00
5413;BME280;2729;50.056;8.678;2023-01-08T07:16:13;99363.91;;;10.79;100.00
5413;BME280;2729;50.056;8.678;2023-01-08T07:18:39;99359.66;;;10.76;100.00
5413;BME280;2729;50.056;8.678;2023-01-08T07:21:06;99358.34;;;10.44;100.00
5413;BME280;2729;50.056;8.678;2023-01-08T07:23:33;99362.03;;;10.60;100.00
5413;BME280;2729;50.056;8.678;2023-01-08T07:26:00;99360.16;;;10.64;100.00
5413;BME280;2729;50.056;8.678;2023-01-08T07:28:27;99362.38;;;10.95;100.00
5413;BME280;2729;50.056;8.678;2023-01-08T07:30:53;99370.22;;;10.73;100.00
5413;BME280;2729;50.056;8.678;2023-01-08T07:33:20;99366.66;;;10.54;100.00
5413;BME280;2729;50.056;8.678;2023-01-08T07:35:53;99369.94;;;10.36;100.00
5413;BME280;2729;50.056;8.678;2023-01-08T07:38:19;99380.72;;;10.50;100.00
5413;BME280;2729;50.056;8.678;2023-01-08T07:40:45;99369.69;;;10.65;100.00
5413;BME280;2729;50.056;8.678;2023-01-08T07:43:11;99365.78;;;10.75;100.00
5413;BME280;2729;50.056;8.678;2023-01-08T07:45:37;99367.31;;;10.59;100.00
5413;BME280;2729;50.056;8.678;2023-01-08T07:48:04;99366.03;;;10.69;100.00
5413;BME280;2729;50.056;8.678;2023-01-08T07:50:30;99365.13;;;10.70;100.00
5413;BME280;2729;50.056;8.678;2023-01-08T07:53:00;99367.75;;;10.70;100.00
5413;BME280;2729;50.056;8.678;2023-01-08T07:55:28;99368.84;;;10.65;100.00
5413;BME280;2729;50.056;8.678;2023-01-08T07:57:54;99368.59;;;11.13;100.00
5413;BME280;2729;50.056;8.678;2023-01-08T08:00:20;99366.47;;;10.80;100.00
5413;BME280;2729;50.056;8.678;2023-01-08T08:02:47;99356.22;;;10.54;100.00
5413;BME280;2729;50.056;8.678;2023-01-08T08:05:12;99370.16;;;10.75;100.00
5413;BME280;2729;50.056;8.678;2023-01-08T08:07:38;99363.56;;;10.66;100.00
5413;BME280;2729;50.056;8.678;2023-01-08T08:10:05;99362.09;;;10.59;100.00
5413;BME280;2729;50.056;8.678;2023-01-08T08:12:31;99364.28;;;10.70;100.00
5413;BME280;2729;50.056;8.678;2023-01-08T08:14:57;99362.16;;;10.57;100.00
5413;BME280;2729;50.056;8.678;2023-01-08T08:17:23;99365.31;;;10.66;100.00
5413;BME280;2729;50.056;8.678;2023-01-08T08:19:49;99367.78;;;10.69;100.00
5413;BME280;2729;50.056;8.678;2023-01-08T08:22:15;99371.00;;;10.53;100.00
5413;BME280;2729;50.056;8.678;2023-01-08T08:24:40;99363.19;;;10.53;100.00
5413;BME280;2729;50.056;8.678;2023-01-08T08:27:06;99360.59;;;10.53;100.00
5413;BME280;2729;50.056;8.678;2023-01-08T08:29:32;99367.00;;;10.45;100.00
5413;BME280;2729;50.056;8.678;2023-01-08T08:31:58;99376.22;;;10.53;100.00
5413;BME280;2729;50.056;8.678;2023-01-08T08:34:24;99367.97;;;10.64;100.00
5413;BME280;2729;50.056;8.678;2023-01-08T08:36:50;99373.81;;;10.49;100.00
5413;BME280;2729;50.056;8.678;2023-01-08T08:39:16;99369.94;;;10.59;100.00
5413;BME280;2729;50.056;8.678;2023-01-08T08:41:42;99372.59;;;10.57;100.00
5413;BME280;2729;50.056;8.678;2023-01-08T08:44:08;99369.94;;;10.59;100.00
5413;BME280;2729;50.056;8.678;2023-01-08T08:46:35;99376.72;;;10.63;100.00
5413;BME280;2729;50.056;8.678;2023-01-08T08:49:01;99372.78;;;10.53;100.00
5413;BME280;2729;50.056;8.678;2023-01-08T08:51:27;99371.44;;;10.65;100.00
5413;BME280;2729;50.056;8.678;2023-01-08T08:53:53;99376.19;;;10.55;100.00
5413;BME280;2729;50.056;8.678;2023-01-08T08:56:19;99365.84;;;10.74;100.00
5413;BME280;2729;50.056;8.678;2023-01-08T08:58:45;99372.41;;;10.62;100.00
5413;BME280;2729;50.056;8.678;2023-01-08T09:01:11;99368.47;;;10.52;100.00
5413;BME280;2729;50.056;8.678;2023-01-08T09:03:37;99363.50;;;10.68;100.00
5413;BME280;2729;50.056;8.678;2023-01-08T09:06:03;99368.84;;;10.65;100.00
5413;BME280;2729;50.056;8.678;2023-01-08T09:08:29;99373.88;;;10.69;100.00
5413;BME280;2729;50.056;8.678;2023-01-08T09:10:55;99358.16;;;10.71;100.00
5413;BME280;2729;50.056;8.678;2023-01-08T09:13:21;99363.56;;;10.66;100.00
5413;BME280;2729;50.056;8.678;2023-01-08T09:15:47;99367.97;;;10.64;100.00
5413;BME280;2729;50.056;8.678;2023-01-08T09:18:13;99368.59;;;10.71;100.00
5413;BME280;2729;50.056;8.678;2023-01-08T09:20:39;99361.91;;;10.63;100.00
5413;BME280;2729;50.056;8.678;2023-01-08T09:23:05;99358.28;;;10.68;100.00
5413;BME280;2729;50.056;8.678;2023-01-08T09:25:31;99357.59;;;10.62;100.00
5413;BME280;2729;50.056;8.678;2023-01-08T09:28:03;99364.09;;;10.52;100.00
5413;BME280;2729;50.056;8.678;2023-01-08T09:30:29;99372.13;;;10.24;100.00
5413;BME280;2729;50.056;8.678;2023-01-08T09:32:59;99376.00;;;10.59;100.00
5413;BME280;2729;50.056;8.678;2023-01-08T09:35:26;99382.53;;;10.70;100.00
5413;BME280;2729;50.056;8.678;2023-01-08T09:37:53;99378.78;;;10.77;100.00
5413;BME280;2729;50.056;8.678;2023-01-08T09:40:21;99377.38;;;10.68;100.00
5413;BME280;2729;50.056;8.678;2023-01-08T09:42:59;99378.78;;;10.77;100.00
5413;BME280;2729;50.056;8.678;2023-01-08T09:45:29;99383.09;;;10.78;100.00
5413;BME280;2729;50.056;8.678;2023-01-08T09:47:58;99387.09;;;10.86;100.00
5413;BME280;2729;50.056;8.678;2023-01-08T09:50:27;99378.91;;;10.74;100.00
5413;BME280;2729;50.056;8.678;2023-01-08T09:52:53;99369.91;;;10.81;100.00
5413;BME280;2729;50.056;8.678;2023-01-08T09:55:19;99372.84;;;10.73;100.00
5413;BME280;2729;50.056;8.678;2023-01-08T09:57:46;99375.44;;;10.73;100.00
5413;BME280;2729;50.056;8.678;2023-01-08T10:00:16;99368.78;;;10.66;100.00
5413;BME280;2729;50.056;8.678;2023-01-08T10:02:43;99369.31;;;10.74;100.00
5413;BME280;2729;50.056;8.678;2023-01-08T10:05:14;99376.53;;;10.68;100.00
5413;BME280;2729;50.056;8.678;2023-01-08T10:07:41;99376.09;;;10.78;100.00
5413;BME280;2729;50.056;8.678;2023-01-08T10:10:19;99376.72;;;10.85;100.00
5413;BME280;2729;50.056;8.678;2023-01-08T10:12:46;99374.78;;;10.68;100.00
5413;BME280;2729;50.056;8.678;2023-01-08T10:15:17;99377.75;;;10.81;100.00
5413;BME280;2729;50.056;8.678;2023-01-08T10:18:03;99358.56;;;10.82;100.00
5413;BME280;2729;50.056;8.678;2023-01-08T10:20:32;99357.53;;;10.86;100.00
5413;BME280;2729;50.056;8.678;2023-01-08T10:23:16;99350.06;;;10.77;100.00
5413;BME280;2729;50.056;8.678;2023-01-08T10:28:25;99341.56;;;10.93;100.00
5413;BME280;2729;50.056;8.678;2023-01-08T10:30:53;99341.88;;;10.86;100.00
5413;BME280;2729;50.056;8.678;2023-01-08T10:33:25;99342.91;;;10.82;100.00
5413;BME280;2729;50.056;8.678;2023-01-08T10:35:57;99324.59;;;11.04;100.00
5413;BME280;2729;50.056;8.678;2023-01-08T10:38:26;99330.38;;;10.90;100.00
5413;BME280;2729;50.056;8.678;2023-01-08T10:40:55;99327.31;;;11.01;100.00
5413;BME280;2729;50.056;8.678;2023-01-08T10:43:41;99332.88;;;11.13;100.00
5413;BME280;2729;50.056;8.678;2023-01-08T10:46:16;99325.75;;;11.17;100.00
5413;BME280;2729;50.056;8.678;2023-01-08T10:48:50;99323.03;;;11.20;100.00
5413;BME280;2729;50.056;8.678;2023-01-08T10:51:21;99324.41;;;11.28;100.00
5413;BME280;2729;50.056;8.678;2023-01-08T10:53:49;99321.25;;;11.20;100.00
5413;BME280;2729;50.056;8.678;2023-01-08T10:56:22;99313.53;;;11.38;100.00
5413;BME280;2729;50.056;8.678;2023-01-08T10:58:50;99302.81;;;11.44;100.00
5413;BME280;2729;50.056;8.678;2023-01-08T11:01:19;99308.72;;;11.28;100.00
5413;BME280;2729;50.056;8.678;2023-01-08T11:03:52;99303.38;;;11.32;100.00
5413;BME280;2729;50.056;8.678;2023-01-08T11:06:23;99296.75;;;11.43;100.00
5413;BME280;2729;50.056;8.678;2023-01-08T11:08:52;99291.13;;;11.52;100.00
5413;BME280;2729;50.056;8.678;2023-01-08T11:11:19;99297.91;;;11.56;100.00
5413;BME280;2729;50.056;8.678;2023-01-08T11:13:57;99288.84;;;11.45;100.00
5413;BME280;2729;50.056;8.678;2023-01-08T11:16:36;99278.69;;;11.57;100.00
5413;BME280;2729;50.056;8.678;2023-01-08T11:19:04;99275.88;;;11.62;100.00
5413;BME280;2729;50.056;8.678;2023-01-08T11:21:39;99276.84;;;11.59;100.00
5413;BME280;2729;50.056;8.678;2023-01-08T11:24:17;99273.75;;;11.51;100.00
5413;BME280;2729;50.056;8.678;2023-01-08T11:26:47;99266.75;;;11.52;100.00
5413;BME280;2729;50.056;8.678;2023-01-08T11:32:24;99250.00;;;11.56;100.00
5413;BME280;2729;50.056;8.678;2023-01-08T11:35:03;99247.75;;;11.48;100.00
5413;BME280;2729;50.056;8.678;2023-01-08T11:37:35;99245.22;;;11.47;100.00
5413;BME280;2729;50.056;8.678;2023-01-08T11:40:12;99241.03;;;11.43;100.00
5413;BME280;2729;50.056;8.678;2023-01-08T11:42:55;99233.97;;;11.45;100.00
5413;BME280;2729;50.056;8.678;2023-01-08T11:45:52;99239.69;;;11.53;100.00
5413;BME280;2729;50.056;8.678;2023-01-08T11:48:39;99226.78;;;11.69;100.00
5413;BME280;2729;50.056;8.678;2023-01-08T11:51:39;99209.41;;;11.49;100.00
5413;BME280;2729;50.056;8.678;2023-01-08T11:54:23;99211.09;;;11.69;100.00
5413;BME280;2729;50.056;8.678;2023-01-08T11:59:57;99194.88;;;11.81;100.00
5413;BME280;2729;50.056;8.678;2023-01-08T12:05:26;99192.09;;;11.65;100.00
5413;BME280;2729;50.056;8.678;2023-01-08T12:08:02;99188.44;;;11.88;100.00
5413;BME280;2729;50.056;8.678;2023-01-08T12:10:41;99189.28;;;11.70;100.00
5413;BME280;2729;50.056;8.678;2023-01-08T12:13:37;99183.75;;;11.76;100.00
5413;BME280;2729;50.056;8.678;2023-01-08T12:19:16;99173.28;;;11.95;100.00
5413;BME280;2729;50.056;8.678;2023-01-08T12:27:23;99159.94;;;12.01;100.00
5413;BME280;2729;50.056;8.678;2023-01-08T12:32:57;99159.19;;;11.80;100.00
5413;BME280;2729;50.056;8.678;2023-01-08T12:35:42;99154.06;;;11.96;100.00
5413;BME280;2729;50.056;8.678;2023-01-08T12:38:20;99151.75;;;11.89;100.00
5413;BME280;2729;50.056;8.678;2023-01-08T12:40:54;99169.00;;;11.94;100.00
5413;BME280;2729;50.056;8.678;2023-01-08T12:43:34;99152.78;;;12.04;100.00
5413;BME280;2729;50.056;8.678;2023-01-08T12:46:05;99153.97;;;11.80;100.00
5413;BME280;2729;50.056;8.678;2023-01-08T12:48:32;99144.53;;;11.95;100.00
5413;BME280;2729;50.056;8.678;2023-01-08T12:53:54;99132.09;;;12.17;100.00
5413;BME280;2729;50.056;8.678;2023-01-08T12:56:42;99128.72;;;12.15;100.00
5413;BME280;2729;50.056;8.678;2023-01-08T12:59:23;99124.72;;;12.25;100.00
5413;BME280;2729;50.056;8.678;2023-01-08T13:04:40;99110.56;;;12.29;100.00
5413;BME280;2729;50.056;8.678;2023-01-08T13:07:15;99109.78;;;12.27;100.00
5413;BME280;2729;50.056;8.678;2023-01-08T13:09:43;99111.47;;;12.28;100.00
5413;BME280;2729;50.056;8.678;2023-01-08T13:12:12;99108.16;;;12.24;100.00
5413;BME280;2729;50.056;8.678;2023-01-08T13:14:41;99105.41;;;12.10;100.00
5413;BME280;2729;50.056;8.678;2023-01-08T13:17:17;99107.16;;;12.10;100.00
5413;BME280;2729;50.056;8.678;2023-01-08T13:19:54;99103.63;;;12.45;100.00
5413;BME280;2729;50.056;8.678;2023-01-08T13:22:25;99105.09;;;12.34;100.00
5413;BME280;2729;50.056;8.678;2023-01-08T13:25:25;99098.72;;;12.22;100.00
5413;BME280;2729;50.056;8.678;2023-01-08T13:27:51;99103.38;;;12.50;100.00
5413;BME280;2729;50.056;8.678;2023-01-08T13:30:38;99097.94;;;12.20;100.00
5413;BME280;2729;50.056;8.678;2023-01-08T13:33:34;99091.31;;;12.13;100.00
5413;BME280;2729;50.056;8.678;2023-01-08T13:36:15;99097.78;;;12.40;100.00
5413;BME280;2729;50.056;8.678;2023-01-08T13:38:42;99095.06;;;12.42;100.00
5413;BME280;2729;50.056;8.678;2023-01-08T13:44:34;99096.06;;;12.39;100.00
5413;BME280;2729;50.056;8.678;2023-01-08T13:46:53;99092.69;;;12.37;100.00
5413;BME280;2729;50.056;8.678;2023-01-08T13:49:42;99091.69;;;12.40;100.00
5413;BME280;2729;50.056;8.678;2023-01-08T13:52:40;99086.84;;;12.32;100.00
5413;BME280;2729;50.056;8.678;2023-01-08T13:55:16;99079.38;;;12.24;100.00
5413;BME280;2729;50.056;8.678;2023-01-08T13:57:47;99082.84;;;12.25;100.00
5413;BME280;2729;50.056;8.678;2023-01-08T14:00:23;99073.78;;;11.98;100.00
5413;BME280;2729;50.056;8.678;2023-01-08T14:02:49;99071.31;;;12.12;100.00
5413;BME280;2729;50.056;8.678;2023-01-08T14:05:24;99071.09;;;11.99;100.00
5413;BME280;2729;50.056;8.678;2023-01-08T14:07:51;99075.63;;;11.96;100.00